Time;durP1;ratioP1;P1;durP2;ratioP2;P2;SDS_P1;SDS_P2;PMS_P1;PMS_P2;Temp;Humidity;BMP_temperature;BMP_pressure;BME280_temperature;BME280_humidity;BME280_pressure;Samples;Min_cycle;Max_cycle;Signal;HPM_P1;HPM_P2
2023/03/01 00:01:31;;;;;;;1.80;1.70;;;0.20;98.20;;;;;;5014075;28;20495;-74
2023/03/01 00:03:59;;;;;;;1.90;1.80;;;0.20;98.20;;;;;;5026213;28;20483;-73
2023/03/01 00:06:28;;;;;;;1.73;1.63;;;0.10;98.20;;;;;;5021094;28;20500;-73
2023/03/01 00:08:55;;;;;;;1.70;1.60;;;0.10;98.20;;;;;;5029214;28;20463;-73
2023/03/01 00:11:24;;;;;;;1.70;1.60;;;0.10;98.20;;;;;;5013868;28;20914;-72
2023/03/01 00:13:53;;;;;;;1.90;1.80;;;0.10;98.20;;;;;;5024528;28;20518;-73
2023/03/01 00:16:22;;;;;;;1.80;1.70;;;0.10;98.20;;;;;;5015046;28;20486;-73
2023/03/01 00:18:51;;;;;;;1.80;1.70;;;0.10;98.20;;;;;;5022300;28;20869;-72
2023/03/01 00:21:20;;;;;;;1.80;1.70;;;0.00;98.20;;;;;;5017607;28;20537;-73
2023/03/01 00:23:48;;;;;;;1.87;1.77;;;0.00;98.20;;;;;;5025292;28;20479;-73
2023/03/01 00:26:16;;;;;;;3.50;3.30;;;0.00;98.20;;;;;;5014961;28;20491;-73
2023/03/01 00:28:43;;;;;;;1.70;1.60;;;-0.10;98.20;;;;;;5027427;28;20976;-72
2023/03/01 00:31:12;;;;;;;1.70;1.60;;;-0.10;98.20;;;;;;5016446;28;20828;-72
2023/03/01 00:33:40;;;;;;;1.80;1.70;;;-0.10;98.20;;;;;;5028890;28;20479;-72
2023/03/01 00:36:09;;;;;;;1.80;1.70;;;-0.10;98.20;;;;;;5015619;28;20495;-73
2023/03/01 00:38:37;;;;;;;1.80;1.70;;;-0.10;98.20;;;;;;5026050;28;20464;-73
2023/03/01 00:41:06;;;;;;;1.80;1.70;;;-0.10;98.20;;;;;;5017516;28;20471;-73
2023/03/01 00:43:36;;;;;;;1.90;1.80;;;-0.10;98.20;;;;;;5026584;28;20515;-73
2023/03/01 00:46:03;;;;;;;1.70;1.60;;;-0.10;98.20;;;;;;5016282;28;20459;-73
2023/03/01 00:48:30;;;;;;;1.80;1.70;;;-0.10;98.20;;;;;;5026958;28;20521;-73
2023/03/01 00:50:57;;;;;;;1.70;1.60;;;-0.20;98.20;;;;;;5017729;28;20470;-72
2023/03/01 00:53:25;;;;;;;1.93;1.83;;;-0.20;98.20;;;;;;5027687;28;20483;-73
2023/03/01 00:55:52;;;;;;;1.90;1.80;;;-0.20;98.20;;;;;;5015702;28;20999;-73
2023/03/01 00:58:19;;;;;;;1.70;1.60;;;-0.20;98.20;;;;;;5027325;28;20466;-73
2023/03/01 01:00:46;;;;;;;1.80;1.70;;;-0.20;98.20;;;;;;5027580;28;20976;-73
2023/03/01 01:03:12;;;;;;;1.80;1.70;;;-0.20;98.20;;;;;;4998945;28;20562;-73
2023/03/01 01:05:39;;;;;;;1.70;1.60;;;-0.20;98.20;;;;;;5026808;28;20467;-73
2023/03/01 01:08:06;;;;;;;1.80;1.70;;;-0.20;98.20;;;;;;5013054;28;20487;-73
2023/03/01 01:10:36;;;;;;;1.80;1.70;;;-0.30;98.20;;;;;;5032174;28;20470;-73
2023/03/01 01:13:02;;;;;;;1.80;1.70;;;-0.30;98.20;;;;;;5020054;28;20498;-73
2023/03/01 01:15:30;;;;;;;1.70;1.60;;;-0.30;98.20;;;;;;5030954;28;20490;-73
2023/03/01 01:17:56;;;;;;;1.80;1.70;;;-0.30;98.20;;;;;;5019210;28;20860;-72
2023/03/01 01:20:23;;;;;;;1.70;1.60;;;-0.40;98.20;;;;;;5032484;28;20466;-72
2023/03/01 01:22:51;;;;;;;1.83;1.73;;;-0.40;98.20;;;;;;5027305;28;20489;-73
2023/03/01 01:25:17;;;;;;;4.90;4.23;;;-0.40;98.20;;;;;;5030041;28;20463;-73
2023/03/01 01:27:46;;;;;;;1.90;1.80;;;-0.40;98.20;;;;;;5021773;28;20487;-73
2023/03/01 01:30:14;;;;;;;1.80;1.70;;;-0.50;98.20;;;;;;5031039;28;20471;-72
2023/03/01 01:32:41;;;;;;;1.80;1.70;;;-0.50;98.20;;;;;;5021446;28;20913;-72
2023/03/01 01:35:08;;;;;;;1.80;1.70;;;-0.50;98.20;;;;;;5029703;28;20523;-73
2023/03/01 01:37:36;;;;;;;1.90;1.80;;;-0.50;98.20;;;;;;5020029;28;20486;-73
2023/03/01 01:40:04;;;;;;;1.93;1.83;;;-0.50;98.20;;;;;;5029241;28;20498;-73
2023/03/01 01:42:31;;;;;;;1.80;1.70;;;-0.50;98.20;;;;;;5019988;28;20485;-73
2023/03/01 01:45:30;;;;;;;1.80;1.70;;;-0.60;98.20;;;;;;5029779;28;20509;-72
2023/03/01 01:48:01;;;;;;;1.80;1.70;;;-0.60;98.20;;;;;;5018105;28;20483;-73
2023/03/01 01:50:37;;;;;;;1.90;1.80;;;-0.60;98.20;;;;;;5024617;28;20489;-73
2023/03/01 01:53:07;;;;;;;1.90;1.80;;;-0.60;98.20;;;;;;5019041;28;20720;-73
2023/03/01 01:55:35;;;;;;;1.70;1.60;;;-0.60;98.20;;;;;;5024043;28;20494;-72
2023/03/01 01:58:05;;;;;;;1.80;1.70;;;-0.60;98.20;;;;;;5015626;28;20482;-73
2023/03/01 02:00:34;;;;;;;1.80;1.70;;;-0.60;98.20;;;;;;5029233;28;20459;-72
2023/03/01 02:03:04;;;;;;;1.80;1.70;;;-0.60;98.20;;;;;;5019645;28;20502;-73
2023/03/01 02:05:38;;;;;;;1.80;1.70;;;-0.60;98.20;;;;;;5010912;28;20465;-73
2023/03/01 02:08:05;;;;;;;1.80;1.70;;;-0.60;98.20;;;;;;5016051;28;21043;-73
2023/03/01 02:10:35;;;;;;;1.80;1.70;;;-0.60;98.20;;;;;;5028531;28;20463;-73
2023/03/01 02:13:03;;;;;;;1.80;1.70;;;-0.60;98.20;;;;;;5020035;28;21014;-73
2023/03/01 02:15:34;;;;;;;1.80;1.70;;;-0.60;98.20;;;;;;5027004;28;20533;-72
2023/03/01 02:18:02;;;;;;;1.80;1.70;;;-0.70;98.20;;;;;;5019390;28;20499;-73
2023/03/01 02:20:38;;;;;;;1.80;1.70;;;-0.70;98.20;;;;;;5028603;28;20469;-72
2023/03/01 02:23:05;;;;;;;1.80;1.70;;;-0.70;98.20;;;;;;5020397;28;20490;-73
2023/03/01 02:25:39;;;;;;;1.80;1.70;;;-0.70;98.20;;;;;;5026241;28;20466;-72
2023/03/01 02:28:13;;;;;;;1.90;1.80;;;-0.70;98.20;;;;;;5019186;28;20491;-73
2023/03/01 02:31:41;;;;;;;1.80;1.70;;;-0.70;98.20;;;;;;5028679;28;20513;-72
2023/03/01 02:33:28;;;;;;;1.80;1.70;;;-0.70;98.20;;;;;;5003844;28;20569;-73
2023/03/01 02:35:56;;;;;;;1.80;1.70;;;-0.70;98.20;;;;;;5015363;28;21110;-73
2023/03/01 02:38:24;;;;;;;1.70;1.60;;;-0.70;98.20;;;;;;5035688;28;20467;-73
2023/03/01 02:40:52;;;;;;;1.90;1.80;;;-0.70;98.20;;;;;;5017833;28;20474;-72
2023/03/01 02:43:22;;;;;;;2.83;2.63;;;-0.70;98.20;;;;;;5028642;28;20483;-72
2023/03/01 02:45:52;;;;;;;1.93;1.83;;;-0.70;98.20;;;;;;5020824;28;21004;-74
2023/03/01 02:48:19;;;;;;;1.80;1.70;;;-0.70;98.20;;;;;;5025281;28;20831;-75
2023/03/01 02:51:03;;;;;;;1.80;1.70;;;-0.80;98.20;;;;;;5029100;28;21002;-72
2023/03/01 02:53:35;;;;;;;1.80;1.70;;;-0.80;98.20;;;;;;5002227;28;20475;-75
2023/03/01 02:56:02;;;;;;;1.80;1.70;;;-0.80;98.20;;;;;;5017864;28;20490;-75
2023/03/01 02:58:29;;;;;;;1.80;1.70;;;-0.80;98.20;;;;;;5026037;28;20462;-75
2023/03/01 03:01:00;;;;;;;1.80;1.70;;;-0.80;98.20;;;;;;5018725;28;20521;-76
2023/03/01 03:03:27;;;;;;;1.70;1.60;;;-0.80;98.20;;;;;;5028256;28;20487;-74
2023/03/01 03:05:54;;;;;;;1.80;1.70;;;-0.80;98.20;;;;;;5018206;28;20459;-74
2023/03/01 03:08:23;;;;;;;1.80;1.70;;;-0.80;98.20;;;;;;5025920;28;20467;-74
2023/03/01 03:10:50;;;;;;;1.80;1.70;;;-0.80;98.20;;;;;;5019256;28;20463;-75
2023/03/01 03:13:17;;;;;;;1.80;1.70;;;-0.90;98.20;;;;;;5024622;28;20899;-74
2023/03/01 03:15:44;;;;;;;1.80;1.70;;;-0.90;98.20;;;;;;5023525;28;20491;-75
2023/03/01 03:18:18;;;;;;;1.70;1.60;;;-0.90;98.20;;;;;;5018988;28;20486;-75
2023/03/01 03:20:46;;;;;;;1.80;1.70;;;-0.90;98.20;;;;;;5032222;28;20517;-75
2023/03/01 03:23:13;;;;;;;2.00;1.90;;;-1.00;98.20;;;;;;5020378;28;20479;-73
2023/03/01 03:25:40;;;;;;;1.80;1.70;;;-1.00;98.20;;;;;;5030894;28;20459;-75
2023/03/01 03:28:10;;;;;;;1.80;1.70;;;-1.10;98.20;;;;;;5017406;28;20490;-76
2023/03/01 03:30:39;;;;;;;1.90;1.80;;;-1.10;98.20;;;;;;5030109;28;20999;-74
2023/03/01 03:33:06;;;;;;;1.83;1.73;;;-1.10;98.20;;;;;;5018747;28;20840;-76
2023/03/01 03:35:39;;;;;;;1.90;1.80;;;-1.10;98.20;;;;;;5030576;28;20490;-74
2023/03/01 03:38:15;;;;;;;1.80;1.70;;;-1.10;98.20;;;;;;5020506;28;20644;-75
2023/03/01 03:40:44;;;;;;;1.80;1.70;;;-1.20;98.20;;;;;;5031740;28;20470;-74
2023/03/01 03:43:13;;;;;;;1.80;1.70;;;-1.20;98.20;;;;;;5017242;28;20479;-75
2023/03/01 03:45:41;;;;;;;1.90;1.80;;;-1.20;98.20;;;;;;5029937;28;20482;-75
2023/03/01 03:48:10;;;;;;;1.80;1.70;;;-1.20;98.20;;;;;;5022764;28;20499;-76
2023/03/01 03:50:38;;;;;;;1.83;1.73;;;-1.30;98.20;;;;;;5028224;28;20510;-75
2023/03/01 03:53:09;;;;;;;1.80;1.70;;;-1.30;98.20;;;;;;5019577;28;20991;-74
2023/03/01 03:55:38;;;;;;;2.00;1.90;;;-1.30;98.20;;;;;;5022168;28;20487;-73
2023/03/01 03:58:07;;;;;;;1.90;1.80;;;-1.30;98.20;;;;;;5019338;28;20485;-73
2023/03/01 04:00:35;;;;;;;1.80;1.70;;;-1.30;98.20;;;;;;5022945;28;20459;-75
2023/03/01 04:03:02;;;;;;;1.80;1.70;;;-1.40;98.20;;;;;;5024290;28;20482;-72
2023/03/01 04:05:30;;;;;;;1.80;1.70;;;-1.40;98.20;;;;;;5027251;28;20451;-73
2023/03/01 04:08:02;;;;;;;1.80;1.70;;;-1.40;98.20;;;;;;5021606;28;20839;-73
2023/03/01 04:10:29;;;;;;;1.90;1.80;;;-1.40;98.20;;;;;;5026178;28;20462;-73
2023/03/01 04:12:57;;;;;;;1.90;1.80;;;-1.40;98.20;;;;;;5019575;28;20486;-73
2023/03/01 04:15:24;;;;;;;2.63;2.43;;;-1.40;98.20;;;;;;5023159;28;20459;-73
2023/03/01 04:17:53;;;;;;;1.90;1.80;;;-1.40;98.20;;;;;;5018768;28;20482;-73
2023/03/01 04:20:24;;;;;;;1.90;1.80;;;-1.50;98.20;;;;;;5026238;28;20463;-73
2023/03/01 04:22:52;;;;;;;1.90;1.80;;;-1.50;98.20;;;;;;5015885;28;20929;-73
2023/03/01 04:25:20;;;;;;;1.90;1.80;;;-1.50;98.20;;;;;;5025895;28;20471;-73
2023/03/01 04:27:47;;;;;;;1.90;1.80;;;-1.50;98.20;;;;;;5018521;28;20490;-73
2023/03/01 04:30:14;;;;;;;1.90;1.80;;;-1.60;98.20;;;;;;5026002;28;20494;-73
2023/03/01 04:32:41;;;;;;;1.90;1.80;;;-1.60;98.20;;;;;;5015550;28;20483;-73
2023/03/01 04:35:08;;;;;;;1.90;1.80;;;-1.60;98.20;;;;;;5024960;28;20467;-73
2023/03/01 04:37:35;;;;;;;1.90;1.80;;;-1.70;98.20;;;;;;5013869;28;20498;-72
2023/03/01 04:40:12;;;;;;;1.90;1.80;;;-1.70;98.20;;;;;;5025726;28;20467;-73
2023/03/01 04:42:40;;;;;;;1.90;1.80;;;-1.70;98.20;;;;;;5017971;28;20597;-73
2023/03/01 04:45:12;;;;;;;1.90;1.80;;;-1.70;98.20;;;;;;5023352;28;20475;-73
2023/03/01 04:47:40;;;;;;;1.80;1.70;;;-1.70;98.20;;;;;;5020598;28;20539;-73
2023/03/01 04:50:08;;;;;;;1.90;1.80;;;-1.70;98.20;;;;;;5025838;28;20772;-72
2023/03/01 04:52:35;;;;;;;1.97;1.87;;;-1.70;98.20;;;;;;5011473;28;20524;-74
2023/03/01 04:55:03;;;;;;;1.90;1.80;;;-1.70;98.20;;;;;;5026590;28;20948;-73
2023/03/01 04:57:30;;;;;;;2.10;2.00;;;-1.70;98.20;;;;;;5016342;28;20482;-73
2023/03/01 04:59:58;;;;;;;1.97;1.87;;;-1.70;98.20;;;;;;5025214;28;20694;-74
2023/03/01 05:02:25;;;;;;;1.80;1.70;;;-1.70;98.20;;;;;;5020246;28;20564;-73
2023/03/01 05:04:52;;;;;;;1.90;1.80;;;-1.70;98.20;;;;;;5025296;28;20474;-73
2023/03/01 05:07:19;;;;;;;1.90;1.80;;;-1.70;98.20;;;;;;5018424;28;21100;-73
2023/03/01 05:09:46;;;;;;;1.90;1.80;;;-1.70;98.20;;;;;;5019473;28;20543;-73
2023/03/01 05:12:14;;;;;;;5.70;5.20;;;-1.70;98.20;;;;;;5002269;28;20562;-73
2023/03/01 05:14:41;;;;;;;1.90;1.80;;;-1.70;98.20;;;;;;5023825;28;20473;-73
2023/03/01 05:17:09;;;;;;;1.80;1.70;;;-1.70;98.20;;;;;;5013889;28;20486;-73
2023/03/01 05:19:36;;;;;;;1.90;1.80;;;-1.70;98.20;;;;;;5022489;28;20475;-73
2023/03/01 05:22:03;;;;;;;1.90;1.80;;;-1.70;98.20;;;;;;5007369;28;20486;-72
2023/03/01 05:24:32;;;;;;;2.00;1.90;;;-1.70;98.20;;;;;;5020436;28;20483;-74
2023/03/01 05:26:59;;;;;;;1.90;1.80;;;-1.70;98.20;;;;;;5007535;28;20515;-73
2023/03/01 05:29:28;;;;;;;1.90;1.80;;;-1.70;98.20;;;;;;5021229;28;20471;-74
2023/03/01 05:31:56;;;;;;;1.90;1.80;;;-1.70;98.20;;;;;;5016259;28;20486;-73
2023/03/01 05:34:26;;;;;;;2.00;1.90;;;-1.70;98.20;;;;;;5022202;28;21018;-73
2023/03/01 05:36:53;;;;;;;1.90;1.80;;;-1.60;98.20;;;;;;5015102;28;21112;-73
2023/03/01 05:39:22;;;;;;;1.90;1.80;;;-1.60;98.20;;;;;;5020700;28;20838;-74
2023/03/01 05:41:48;;;;;;;1.87;1.77;;;-1.60;98.20;;;;;;5013202;28;20482;-74
2023/03/01 05:44:15;;;;;;;1.90;1.80;;;-1.60;98.20;;;;;;5023151;28;20489;-74
2023/03/01 05:46:42;;;;;;;1.90;1.80;;;-1.60;98.20;;;;;;5012689;28;20490;-74
2023/03/01 05:49:09;;;;;;;1.83;1.73;;;-1.60;98.20;;;;;;5022682;28;20463;-74
2023/03/01 05:51:37;;;;;;;1.80;1.70;;;-1.60;98.20;;;;;;5014545;28;20487;-73
2023/03/01 05:54:05;;;;;;;1.90;1.80;;;-1.60;98.20;;;;;;5027338;28;21107;-75
2023/03/01 05:56:33;;;;;;;1.90;1.80;;;-1.60;98.20;;;;;;5014959;28;20490;-76
2023/03/01 05:59:00;;;;;;;1.93;1.83;;;-1.60;98.20;;;;;;5030760;28;20467;-74
2023/03/01 06:01:27;;;;;;;1.93;1.83;;;-1.60;98.20;;;;;;5018539;28;20703;-74
2023/03/01 06:03:54;;;;;;;1.90;1.80;;;-1.70;98.20;;;;;;5029274;28;20570;-75
2023/03/01 06:06:21;;;;;;;1.90;1.80;;;-1.70;98.20;;;;;;5016941;28;20490;-74
2023/03/01 06:08:49;;;;;;;1.90;1.80;;;-1.70;98.20;;;;;;5026249;28;20463;-74
2023/03/01 06:11:15;;;;;;;1.90;1.80;;;-1.70;98.20;;;;;;5016699;28;20487;-73
2023/03/01 06:13:43;;;;;;;1.90;1.80;;;-1.70;98.20;;;;;;5027909;28;20497;-73
2023/03/01 06:16:10;;;;;;;1.90;1.80;;;-1.80;98.20;;;;;;5014447;28;20490;-73
2023/03/01 06:18:37;;;;;;;1.90;1.80;;;-1.80;98.20;;;;;;5029992;28;20478;-73
2023/03/01 06:21:04;;;;;;;1.80;1.70;;;-1.80;98.20;;;;;;5015704;28;20463;-73
2023/03/01 06:23:31;;;;;;;1.90;1.80;;;-1.90;98.20;;;;;;5030898;28;20633;-75
2023/03/01 06:26:00;;;;;;;1.90;1.80;;;-1.90;98.20;;;;;;5017230;28;20475;-74
2023/03/01 06:28:26;;;;;;;1.90;1.80;;;-1.90;98.20;;;;;;5031570;28;20467;-74
2023/03/01 06:30:53;;;;;;;1.90;1.80;;;-2.00;98.20;;;;;;5016474;28;20464;-73
2023/03/01 06:33:21;;;;;;;2.00;1.90;;;-2.00;98.20;;;;;;5025902;28;20497;-73
2023/03/01 06:35:48;;;;;;;1.90;1.80;;;-2.10;98.20;;;;;;5022996;28;20546;-73
2023/03/01 06:38:17;;;;;;;2.00;1.90;;;-2.10;98.20;;;;;;5030041;28;20491;-74
2023/03/01 06:40:44;;;;;;;1.90;1.80;;;-2.10;98.20;;;;;;5027132;28;20466;-73
2023/03/01 06:43:12;;;;;;;1.90;1.80;;;-2.10;98.20;;;;;;5000222;28;20494;-73
2023/03/01 06:45:39;;;;;;;1.90;1.80;;;-2.10;98.20;;;;;;5022664;28;20857;-73
2023/03/01 06:48:08;;;;;;;1.90;1.80;;;-2.10;98.20;;;;;;5013772;28;20504;-72
2023/03/01 06:50:35;;;;;;;1.90;1.80;;;-2.10;98.20;;;;;;5027414;28;20467;-74
2023/03/01 06:53:02;;;;;;;2.00;1.90;;;-2.00;98.20;;;;;;5022758;28;21243;-75
2023/03/01 06:55:29;;;;;;;1.90;1.80;;;-2.00;98.20;;;;;;5026612;28;20467;-74
2023/03/01 06:57:56;;;;;;;1.90;1.80;;;-2.00;98.20;;;;;;5013591;28;20487;-76
2023/03/01 07:00:26;;;;;;;1.90;1.80;;;-1.90;98.20;;;;;;5027792;28;20467;-74
2023/03/01 07:02:53;;;;;;;1.90;1.80;;;-1.80;98.20;;;;;;5018094;28;20533;-74
2023/03/01 07:05:20;;;;;;;1.90;1.80;;;-1.70;98.20;;;;;;5026834;28;20507;-73
2023/03/01 07:07:47;;;;;;;1.90;1.80;;;-1.60;98.20;;;;;;5018202;28;20483;-73
2023/03/01 07:10:14;;;;;;;1.90;1.80;;;-1.40;98.20;;;;;;5027955;28;20467;-74
2023/03/01 07:12:41;;;;;;;1.97;1.87;;;-1.20;98.20;;;;;;5016675;28;20487;-73
2023/03/01 07:15:10;;;;;;;1.90;1.80;;;-1.10;98.20;;;;;;5026550;28;20524;-75
2023/03/01 07:17:38;;;;;;;1.90;1.80;;;-0.90;98.20;;;;;;5018988;28;20894;-73
2023/03/01 07:20:06;;;;;;;1.90;1.80;;;-0.70;98.20;;;;;;5027041;28;20474;-75
2023/03/01 07:22:32;;;;;;;1.80;1.70;;;-0.50;98.20;;;;;;5023769;28;20492;-73
2023/03/01 07:24:59;;;;;;;1.90;1.80;;;-0.30;98.20;;;;;;5026931;28;20482;-75
2023/03/01 07:27:26;;;;;;;1.80;1.70;;;-0.20;98.20;;;;;;5018031;28;20858;-77
2023/03/01 07:29:53;;;;;;;1.90;1.80;;;0.00;98.20;;;;;;5021671;28;20467;-74
2023/03/01 07:32:19;;;;;;;1.80;1.70;;;0.20;98.20;;;;;;5012489;28;21003;-74
2023/03/01 07:34:47;;;;;;;1.80;1.70;;;0.40;98.20;;;;;;5025701;28;20455;-73
2023/03/01 07:37:14;;;;;;;1.70;1.60;;;0.50;98.20;;;;;;5014242;28;20502;-74
2023/03/01 07:39:41;;;;;;;1.80;1.70;;;0.70;98.20;;;;;;5022207;28;20463;-74
2023/03/01 07:42:08;;;;;;;1.70;1.60;;;0.80;98.20;;;;;;5018508;28;20486;-73
2023/03/01 07:44:35;;;;;;;1.70;1.60;;;1.00;98.20;;;;;;5027677;28;20486;-75
2023/03/01 07:47:03;;;;;;;1.80;1.70;;;1.10;98.20;;;;;;5019312;28;20469;-75
2023/03/01 07:49:30;;;;;;;1.70;1.60;;;1.30;98.20;;;;;;5024187;28;20466;-73
2023/03/01 07:51:58;;;;;;;1.70;1.60;;;1.40;98.20;;;;;;5019349;28;20483;-75
2023/03/01 07:54:26;;;;;;;1.70;1.60;;;1.60;98.20;;;;;;5026061;28;20483;-74
2023/03/01 07:56:54;;;;;;;1.70;1.60;;;1.80;98.20;;;;;;5014194;28;20495;-74
2023/03/01 07:59:21;;;;;;;1.70;1.60;;;2.00;98.20;;;;;;5024626;28;20548;-75
2023/03/01 08:01:47;;;;;;;1.70;1.60;;;2.20;98.20;;;;;;5020782;28;20483;-75
2023/03/01 08:04:14;;;;;;;1.70;1.60;;;2.30;98.20;;;;;;5023923;28;20475;-74
2023/03/01 08:06:41;;;;;;;1.60;1.50;;;2.50;98.20;;;;;;5014069;28;20479;-73
2023/03/01 08:09:09;;;;;;;1.60;1.50;;;2.60;98.20;;;;;;5022381;28;20468;-75
2023/03/01 08:11:36;;;;;;;2.40;2.20;;;2.80;98.20;;;;;;5009424;28;20483;-74
2023/03/01 08:14:02;;;;;;;1.60;1.50;;;2.90;98.20;;;;;;5025869;28;20514;-76
2023/03/01 08:16:29;;;;;;;1.60;1.50;;;3.00;98.20;;;;;;5014051;28;20994;-73
2023/03/01 08:19:00;;;;;;;1.60;1.50;;;3.20;97.90;;;;;;5025577;28;20474;-74
2023/03/01 08:21:27;;;;;;;1.60;1.40;;;3.30;97.20;;;;;;5020044;28;20486;-73
2023/03/01 08:23:53;;;;;;;1.60;1.50;;;3.50;97.30;;;;;;5029807;28;20518;-75
2023/03/01 08:26:22;;;;;;;1.60;1.40;;;3.60;96.30;;;;;;5009400;28;20892;-73
2023/03/01 08:28:50;;;;;;;1.60;1.50;;;3.80;95.90;;;;;;5043366;22;20805;-74
2023/03/01 08:31:19;;;;;;;1.60;1.50;;;3.90;95.80;;;;;;5051238;28;20934;-74
2023/03/01 08:33:50;;;;;;;1.60;1.40;;;4.00;95.60;;;;;;5060643;28;20465;-74
2023/03/01 08:36:17;;;;;;;1.60;1.40;;;4.10;95.90;;;;;;5054810;28;20479;-75
2023/03/01 08:38:45;;;;;;;1.60;1.40;;;4.30;93.60;;;;;;5064884;28;20865;-77
2023/03/01 08:41:12;;;;;;;1.60;1.50;;;4.40;93.10;;;;;;5050483;28;20478;-76
2023/03/01 08:43:43;;;;;;;1.57;1.40;;;4.50;93.00;;;;;;5054299;28;20465;-75
2023/03/01 08:46:10;;;;;;;1.60;1.40;;;4.60;92.10;;;;;;5046929;28;20985;-76
2023/03/01 08:48:37;;;;;;;1.60;1.50;;;4.60;91.50;;;;;;5047996;28;20501;-75
2023/03/01 08:51:10;;;;;;;1.57;1.30;;;4.70;91.70;;;;;;5047437;28;20465;-75
2023/03/01 08:53:37;;;;;;;1.60;1.40;;;4.80;92.10;;;;;;5047028;28;20462;-75
2023/03/01 08:56:04;;;;;;;1.67;1.53;;;4.90;91.10;;;;;;5043004;28;20466;-75
2023/03/01 08:58:31;;;;;;;1.53;1.30;;;5.00;92.20;;;;;;5052688;28;20545;-76
2023/03/01 09:01:00;;;;;;;1.60;1.43;;;5.10;88.60;;;;;;5052437;28;20468;-75
2023/03/01 09:03:27;;;;;;;1.53;1.40;;;5.10;90.70;;;;;;5052847;28;20465;-76
2023/03/01 09:05:54;;;;;;;1.57;1.30;;;5.20;90.20;;;;;;5051640;28;21092;-75
2023/03/01 09:08:20;;;;;;;1.53;1.23;;;5.40;88.90;;;;;;5049687;28;20481;-76
2023/03/01 09:10:47;;;;;;;1.50;1.30;;;5.40;86.60;;;;;;5058573;28;20486;-75
2023/03/01 09:13:14;;;;;;;1.50;1.30;;;5.40;85.50;;;;;;5037220;28;20474;-75
2023/03/01 09:15:41;;;;;;;1.60;1.40;;;5.30;85.10;;;;;;5057366;28;20947;-76
2023/03/01 09:18:09;;;;;;;1.53;1.30;;;5.20;84.70;;;;;;5037991;28;20476;-76
2023/03/01 09:20:35;;;;;;;1.57;1.30;;;5.20;85.70;;;;;;5058280;28;20488;-76
2023/03/01 09:23:02;;;;;;;1.53;1.30;;;5.20;86.20;;;;;;5026680;28;20501;-77
2023/03/01 09:25:29;;;;;;;1.60;1.40;;;5.40;85.20;;;;;;5061680;28;20828;-78
2023/03/01 09:27:56;;;;;;;1.53;1.30;;;5.30;84.30;;;;;;5038837;28;20477;-77
2023/03/01 09:30:24;;;;;;;1.57;1.33;;;5.30;84.80;;;;;;5064392;28;20708;-76
2023/03/01 09:32:50;;;;;;;1.57;1.30;;;5.40;84.30;;;;;;5035592;28;20937;-75
2023/03/01 09:35:19;;;;;;;1.60;1.40;;;5.60;84.90;;;;;;5065731;28;20472;-76
2023/03/01 09:37:46;;;;;;;1.60;1.50;;;5.70;83.80;;;;;;5031431;28;20498;-76
2023/03/01 09:40:16;;;;;;;1.50;1.23;;;5.90;84.10;;;;;;5066451;28;20560;-76
2023/03/01 09:42:53;;;;;;;1.57;1.30;;;6.10;83.40;;;;;;5047682;28;20477;-76
2023/03/01 09:45:28;;;;;;;1.50;1.20;;;6.20;82.70;;;;;;5062587;28;20461;-76
2023/03/01 09:47:56;;;;;;;1.50;1.30;;;6.30;81.90;;;;;;5029989;28;20533;-77
2023/03/01 09:50:28;;;;;;;1.50;1.30;;;6.30;81.20;;;;;;5063572;28;20486;-76
2023/03/01 09:53:02;;;;;;;1.60;1.40;;;6.20;80.40;;;;;;5034776;28;20481;-76
2023/03/01 09:55:34;;;;;;;1.50;1.20;;;6.30;80.20;;;;;;5063529;28;20541;-76
2023/03/01 09:58:12;;;;;;;1.57;1.27;;;6.50;79.80;;;;;;5031368;28;20482;-75
2023/03/01 10:00:43;;;;;;;1.50;1.30;;;6.40;78.30;;;;;;5058559;28;20464;-76
2023/03/01 10:03:17;;;;;;;1.50;1.30;;;6.40;79.20;;;;;;5049568;28;20875;-77
2023/03/01 10:05:57;;;;;;;1.80;1.30;;;6.60;79.60;;;;;;5059895;28;20465;-80
2023/03/01 10:08:41;;;;;;;1.57;1.30;;;6.70;78.70;;;;;;5030437;28;20469;-76
2023/03/01 10:11:21;;;;;;;1.50;1.20;;;7.00;78.90;;;;;;5051458;28;20468;-78
2023/03/01 10:13:53;;;;;;;1.50;1.27;;;7.10;77.50;;;;;;5058167;28;20798;-76
2023/03/01 10:16:24;;;;;;;1.57;1.30;;;7.20;77.40;;;;;;5041451;28;20613;-76
2023/03/01 10:18:55;;;;;;;3.30;3.10;;;7.20;77.20;;;;;;5047351;28;21259;-77
2023/03/01 10:21:24;;;;;;;1.50;1.20;;;7.50;78.50;;;;;;5045971;28;20486;-76
2023/03/01 10:23:53;;;;;;;1.53;1.20;;;7.60;77.60;;;;;;5042200;28;20477;-76
2023/03/01 10:26:36;;;;;;;1.50;1.20;;;7.90;77.90;;;;;;5034171;28;21652;-76
2023/03/01 10:29:05;;;;;;;1.50;1.23;;;8.20;77.50;;;;;;5048727;28;20486;-77
2023/03/01 10:31:40;;;;;;;1.57;1.30;;;8.40;77.20;;;;;;5042358;28;20479;-76
2023/03/01 10:34:11;;;;;;;1.50;1.13;;;8.70;76.80;;;;;;5045756;28;20453;-76
2023/03/01 10:36:40;;;;;;;1.53;1.20;;;8.80;76.20;;;;;;5040925;28;20481;-76
2023/03/01 10:39:14;;;;;;;1.60;1.27;;;9.10;76.90;;;;;;5043745;28;21018;-77
2023/03/01 10:41:54;;;;;;;1.60;1.40;;;9.10;74.90;;;;;;5039747;28;20496;-76
2023/03/01 10:47:43;;;;;;;1.60;1.30;;;9.40;73.50;;;;;;5056094;28;20529;-76
2023/03/01 10:50:21;;;;;;;1.50;1.20;;;9.30;72.20;;;;;;5059504;28;20572;-77
2023/03/01 10:52:59;;;;;;;1.50;1.20;;;9.30;73.70;;;;;;5038349;28;20492;-76
2023/03/01 10:55:32;;;;;;;1.60;1.20;;;9.40;74.50;;;;;;5055101;28;20559;-76
2023/03/01 10:58:19;;;;;;;1.53;1.10;;;9.70;74.60;;;;;;5042750;28;20520;-76
2023/03/01 11:00:52;;;;;;;1.50;1.10;;;9.90;73.90;;;;;;5054723;28;20466;-75
2023/03/01 11:03:24;;;;;;;1.57;1.10;;;10.00;72.90;;;;;;5029639;28;20887;-77
2023/03/01 11:05:59;;;;;;;3.60;3.30;;;10.10;71.50;;;;;;5049008;28;20838;-76
2023/03/01 11:08:37;;;;;;;1.50;1.20;;;10.20;72.10;;;;;;5053241;28;20465;-78
2023/03/01 11:11:15;;;;;;;1.50;1.10;;;10.30;71.10;;;;;;5044390;28;20465;-76
2023/03/01 11:13:51;;;;;;;2.27;1.97;;;10.30;71.40;;;;;;5040873;28;20457;-77
2023/03/01 11:16:25;;;;;;;1.60;1.20;;;10.50;71.80;;;;;;5043345;28;20487;-75
2023/03/01 11:18:58;;;;;;;1.60;1.30;;;10.40;69.10;;;;;;5045485;28;20485;-77
2023/03/01 11:21:27;;;;;;;1.50;1.10;;;10.40;70.60;;;;;;5038324;28;20490;-77
2023/03/01 11:23:55;;;;;;;1.50;1.20;;;10.20;68.40;;;;;;5040457;28;20465;-76
2023/03/01 11:26:23;;;;;;;1.50;1.10;;;10.30;71.00;;;;;;5035945;28;20475;-77
2023/03/01 11:28:54;;;;;;;1.53;1.20;;;10.20;69.30;;;;;;5049727;28;20507;-76
2023/03/01 11:31:24;;;;;;;1.60;1.20;;;10.40;70.50;;;;;;5038523;28;20489;-76
2023/03/01 11:33:56;;;;;;;1.50;1.10;;;10.60;71.50;;;;;;5034852;28;20471;-76
2023/03/01 11:36:31;;;;;;;1.57;1.20;;;10.90;70.50;;;;;;5037256;28;20489;-79
2023/03/01 11:39:05;;;;;;;1.50;1.10;;;10.80;68.40;;;;;;5030038;28;21632;-76
2023/03/01 11:41:34;;;;;;;1.50;1.10;;;10.70;68.50;;;;;;5053768;28;20892;-76
2023/03/01 11:44:04;;;;;;;1.50;1.03;;;10.70;68.30;;;;;;5048593;28;20466;-76
2023/03/01 11:46:56;;;;;;;1.50;1.00;;;10.60;67.50;;;;;;5034562;28;20584;-77
2023/03/01 11:49:58;;;;;;;1.50;1.10;;;10.70;70.00;;;;;;5009525;28;20699;-77
2023/03/01 11:52:36;;;;;;;1.50;1.20;;;10.90;69.60;;;;;;5026357;28;21017;-76
2023/03/01 11:55:18;;;;;;;1.70;1.50;;;10.70;67.60;;;;;;5053381;28;20715;-76
2023/03/01 11:58:02;;;;;;;1.50;1.00;;;10.40;69.80;;;;;;5019906;28;20836;-75
2023/03/01 12:00:45;;;;;;;1.50;1.10;;;10.50;70.40;;;;;;5051089;28;20543;-75
2023/03/01 12:03:32;;;;;;;1.50;1.00;;;10.80;69.60;;;;;;5036139;28;20473;-76
2023/03/01 12:06:28;;;;;;;1.50;1.10;;;10.90;69.30;;;;;;5042063;28;20809;-77
2023/03/01 12:09:07;;;;;;;1.50;1.10;;;10.80;69.00;;;;;;5047584;28;20948;-75
2023/03/01 12:11:50;;;;;;;1.50;1.10;;;10.90;68.90;;;;;;5037692;28;20481;-76
2023/03/01 12:14:49;;;;;;;1.50;1.20;;;10.70;68.90;;;;;;5048943;28;20485;-76
2023/03/01 12:17:42;;;;;;;1.50;1.00;;;10.90;69.80;;;;;;5023740;28;20890;-76
2023/03/01 12:20:18;;;;;;;1.50;1.10;;;11.10;69.50;;;;;;5054325;28;20469;-76
2023/03/01 12:23:03;;;;;;;1.50;1.10;;;11.30;68.90;;;;;;5035176;28;20476;-76
2023/03/01 12:25:38;;;;;;;1.77;1.50;;;11.10;68.60;;;;;;5049700;28;20471;-75
2023/03/01 12:28:30;;;;;;;1.50;1.10;;;11.00;69.50;;;;;;5019758;28;20569;-76
2023/03/01 12:31:34;;;;;;;1.50;1.10;;;10.80;69.60;;;;;;5041849;28;20580;-76
2023/03/01 12:34:12;;;;;;;1.50;1.10;;;10.90;70.80;;;;;;5039725;28;20472;-77
2023/03/01 12:36:51;;;;;;;1.50;1.10;;;11.00;70.40;;;;;;5042776;28;20923;-77
2023/03/01 12:39:33;;;;;;;1.50;1.10;;;11.00;70.30;;;;;;5051971;28;21056;-79
2023/03/01 12:42:10;;;;;;;1.50;1.00;;;10.90;69.90;;;;;;5026225;28;20561;-77
2023/03/01 12:44:53;;;;;;;1.50;1.10;;;11.00;70.60;;;;;;5042912;28;20468;-76
2023/03/01 12:47:31;;;;;;;1.50;1.10;;;11.00;70.90;;;;;;5035640;28;20477;-76
2023/03/01 12:50:02;;;;;;;1.50;1.10;;;11.10;70.60;;;;;;5049817;28;20843;-76
2023/03/01 12:52:38;;;;;;;1.50;1.10;;;11.20;70.60;;;;;;5034146;28;20516;-76
2023/03/01 12:55:19;;;;;;;1.50;1.00;;;11.40;70.50;;;;;;5049440;28;20465;-76
2023/03/01 12:57:51;;;;;;;1.50;1.00;;;11.50;70.20;;;;;;5042446;28;20576;-77
2023/03/01 13:00:28;;;;;;;1.50;1.03;;;11.50;70.00;;;;;;5051362;28;20482;-77
2023/03/01 13:03:01;;;;;;;1.50;1.07;;;11.40;69.60;;;;;;5021814;28;20561;-77
2023/03/01 13:05:39;;;;;;;1.50;1.03;;;11.50;70.70;;;;;;5058302;28;20514;-76
2023/03/01 13:08:13;;;;;;;1.50;1.03;;;11.50;70.50;;;;;;5040548;28;20491;-77
2023/03/01 13:10:48;;;;;;;1.50;1.10;;;11.30;70.70;;;;;;5058813;28;20523;-75